Stony Ridge, Ohio
Current Conditions -  °F | °C
As of 2:53 PM on Thursday 27 Nov 2014 (Local Time) from KTDZ Reporting Station
Overcast Overcast  
Wind Chill: 24°   Ceiling: 3100
Heat Index: 34°   Visibility: 9mi
Dew Point: 23°   Wind: 15mph
Humidity: 64%   Direction: 260°W
Pressure: 30.19"   Gusts: NA
Location:  41.51°N, 83.51°W
Report Text: KTDZ 271953Z AUTO 26013KT 9SM SCT025 OVC031 01/M05 A3019 RMK AO2 SLP229 T00111050 TSNO
Loading
Personal Weather Stations






























Interactive Weather Map New forecast layout! Learn more

10-Day Weather Forecast

Advertisements
Track Severe Weather on mobile